createdAt,value
2019-05-01T00:04:19.937Z,9.33
2019-05-01T00:09:24.515Z,8.47
2019-05-01T00:14:29.101Z,8.75
2019-05-01T00:19:33.900Z,8.60
2019-05-01T00:24:38.515Z,9.90
2019-05-01T00:29:43.111Z,13.17
2019-05-01T00:34:48.616Z,10.83
2019-05-01T00:39:54.095Z,13.77
2019-05-01T00:44:58.777Z,11.93
2019-05-01T00:50:04.675Z,10.87
2019-05-01T00:55:15.401Z,11.67
2019-05-01T01:00:42.900Z,17.20
2019-05-01T01:05:40.147Z,18.63
2019-05-01T01:10:44.611Z,12.60
2019-05-01T01:15:49.052Z,10.77
2019-05-01T01:20:53.850Z,13.22
2019-05-01T01:25:59.785Z,10.53
2019-05-01T01:31:04.542Z,9.70
2019-05-01T01:36:08.994Z,10.03
2019-05-01T01:41:13.692Z,12.33
2019-05-01T01:46:22.710Z,8.70
2019-05-01T01:51:29.105Z,8.70
2019-05-01T01:56:33.681Z,20.93
2019-05-01T02:01:56.127Z,12.47
2019-05-01T02:07:00.850Z,10.63
2019-05-01T02:12:05.744Z,18.13
2019-05-01T02:17:10.445Z,13.93
2019-05-01T02:22:16.956Z,11.20
2019-05-01T02:27:24.021Z,9.97
2019-05-01T02:32:29.561Z,8.97
2019-05-01T02:37:35.148Z,8.97
2019-05-01T02:42:42.562Z,9.03
2019-05-01T02:47:48.145Z,8.70
2019-05-01T02:52:52.810Z,11.67
2019-05-01T02:57:58.091Z,11.20
2019-05-01T03:03:04.153Z,10.73
2019-05-01T03:08:09.536Z,10.13
2019-05-01T03:13:14.126Z,16.00
2019-05-01T03:18:21.154Z,11.87
2019-05-01T03:23:27.356Z,10.77
2019-05-01T03:28:32.519Z,12.00
2019-05-01T03:33:37.108Z,9.80
2019-05-01T03:38:42.069Z,9.73
2019-05-01T03:43:47.202Z,9.87
2019-05-01T03:48:52.222Z,9.97
2019-05-01T03:53:57.018Z,10.43
2019-05-01T03:59:01.731Z,10.23
2019-05-01T04:04:10.056Z,12.73
2019-05-01T04:09:14.916Z,13.27
2019-05-01T04:14:19.862Z,8.63
2019-05-01T04:19:24.856Z,10.00
2019-05-01T04:24:29.425Z,12.87
2019-05-01T04:29:36.142Z,9.00
2019-05-01T04:34:42.568Z,10.67
2019-05-01T04:39:47.847Z,11.20
2019-05-01T04:44:52.622Z,10.47
2019-05-01T04:49:57.574Z,9.30
2019-05-01T04:55:04.307Z,9.68
2019-05-01T05:00:09.687Z,7.27
2019-05-01T05:05:15.139Z,9.57
2019-05-01T05:10:19.779Z,12.50
2019-05-01T05:15:35.107Z,9.23
2019-05-01T05:20:40.137Z,9.43
2019-05-01T05:25:45.179Z,15.07
2019-05-01T05:30:51.739Z,9.77
2019-05-01T05:35:58.062Z,8.17
2019-05-01T05:41:04.026Z,8.80
2019-05-01T05:46:09.010Z,7.60
2019-05-01T05:51:22.497Z,8.50
2019-05-01T05:56:35.822Z,10.20
2019-05-01T06:01:50.271Z,7.60
2019-05-01T06:06:58.811Z,9.93
2019-05-01T06:12:08.977Z,8.83
2019-05-01T06:17:19.399Z,8.33
2019-05-01T06:22:33.521Z,11.33
2019-05-01T06:27:38.755Z,9.20
2019-05-01T06:32:44.345Z,9.03
2019-05-01T06:38:02.323Z,11.10
2019-05-01T06:43:10.727Z,9.23
2019-05-01T06:48:33.441Z,10.00
2019-05-01T06:53:39.989Z,10.13
2019-05-01T07:06:41.395Z,12.43
2019-05-01T07:16:47.406Z,12.50
2019-05-01T07:26:52.025Z,10.60
2019-05-01T07:36:56.751Z,8.37
2019-05-01T07:47:05.974Z,9.37
2019-05-01T07:57:10.601Z,9.10
2019-05-01T08:07:16.366Z,13.77
2019-05-01T08:17:22.473Z,11.90
2019-05-01T08:27:34.676Z,7.87
2019-05-01T08:37:40.884Z,6.23
2019-05-01T08:47:56.742Z,8.30
2019-05-01T08:58:02.320Z,5.93
2019-05-01T09:08:07.097Z,5.93
2019-05-01T09:18:11.704Z,6.90
2019-05-01T09:28:23.842Z,3.40
2019-05-01T09:38:28.742Z,4.25
2019-05-01T09:48:33.469Z,3.57
2019-05-01T09:58:38.090Z,3.40
2019-05-01T10:08:42.682Z,3.77
2019-05-01T10:18:47.282Z,4.10
2019-05-01T10:29:09.971Z,2.50
2019-05-01T10:39:16.084Z,4.25
2019-05-01T10:49:21.008Z,2.27
2019-05-01T10:59:25.563Z,3.87
2019-05-01T11:09:30.100Z,4.57
2019-05-01T11:19:34.599Z,6.37
2019-05-01T11:29:39.038Z,4.97
2019-05-01T11:39:48.126Z,6.23
2019-05-01T11:49:53.887Z,7.27
2019-05-01T11:59:58.347Z,8.60
2019-05-01T12:10:03.263Z,11.33
2019-05-01T12:20:09.254Z,7.60
2019-05-01T12:30:16.907Z,10.03
2019-05-01T12:40:21.725Z,11.22
2019-05-01T12:50:26.369Z,10.18
2019-05-01T13:00:43.032Z,10.15
2019-05-01T13:10:49.090Z,11.55
2019-05-01T13:20:53.603Z,12.73
2019-05-01T13:31:16.273Z,13.03
2019-05-01T13:41:20.781Z,13.62
2019-05-01T13:51:25.311Z,15.70
2019-05-01T14:01:29.750Z,19.13
2019-05-01T14:11:34.275Z,19.00
2019-05-01T14:21:40.404Z,24.30
2019-05-01T14:31:44.927Z,21.03
2019-05-01T14:41:49.511Z,20.50
2019-05-01T14:51:54.022Z,18.85
2019-05-01T15:01:58.573Z,27.37
2019-05-01T15:34:04.400Z,0.20
2019-05-01T15:44:22.568Z,0.20
2019-05-01T15:54:27.116Z,0.10
2019-05-01T16:04:31.565Z,0.23
2019-05-01T16:14:36.581Z,0.10
2019-05-01T16:24:41.448Z,0.10
2019-05-01T16:34:46.407Z,0.10
2019-05-01T16:44:50.876Z,0.70
2019-05-01T16:54:59.509Z,0.43
2019-05-01T17:05:06.258Z,0.60
2019-05-01T17:15:12.378Z,0.30
2019-05-01T17:25:16.905Z,0.20
2019-05-01T17:35:21.871Z,0.20
2019-05-01T17:45:29.940Z,0.20
2019-05-01T17:55:32.736Z,0.10
2019-05-01T18:05:45.100Z,0.28
2019-05-01T18:15:49.608Z,0.10
2019-05-01T18:26:13.303Z,0.20
2019-05-01T18:36:19.896Z,0.10
2019-05-01T18:46:26.282Z,0.10
2019-05-01T18:56:30.877Z,0.10
2019-05-01T19:06:41.383Z,0.10
2019-05-01T19:16:45.259Z,0.20
2019-05-01T19:26:48.057Z,0.10
2019-05-01T19:36:52.553Z,0.10
2019-05-01T19:46:57.103Z,32.00
2019-05-01T19:57:02.197Z,33.40
2019-05-01T20:07:10.661Z,33.90
2019-05-01T20:17:15.478Z,33.93
2019-05-01T20:27:19.982Z,35.87
2019-05-01T20:37:24.455Z,41.03
2019-05-01T20:48:13.740Z,40.40
2019-05-01T20:57:39.742Z,41.13
2019-05-01T21:07:52.064Z,43.77
2019-05-01T21:17:54.735Z,40.30
2019-05-01T21:27:59.268Z,43.63
2019-05-01T21:38:03.785Z,40.00
2019-05-01T21:48:08.355Z,36.93
2019-05-01T21:58:15.178Z,39.50
2019-05-01T22:08:19.373Z,36.77
2019-05-01T22:18:28.510Z,34.97
2019-05-01T22:28:40.470Z,33.47
2019-05-01T22:38:46.649Z,38.53
2019-05-01T22:48:51.314Z,37.38
2019-05-01T22:58:55.889Z,36.60
2019-05-01T23:09:01.735Z,33.60
2019-05-01T23:19:08.093Z,38.00
2019-05-01T23:29:12.664Z,38.80
2019-05-01T23:39:17.331Z,41.93
2019-05-01T23:49:21.838Z,45.83
2019-05-01T23:59:26.363Z,41.63
